createdAt,value
2022-08-16T00:00:38.658Z,3.03
2022-08-16T00:03:13.687Z,3.03
2022-08-16T00:05:47.831Z,2.93
2022-08-16T00:08:36.099Z,3.03
2022-08-16T00:11:06.965Z,2.90
2022-08-16T00:13:41.801Z,2.57
2022-08-16T00:17:00.617Z,3.00
2022-08-16T00:19:01.327Z,5.17
2022-08-16T00:21:30.813Z,3.40
2022-08-16T00:23:59.995Z,3.90
2022-08-16T00:26:38.772Z,5.10
2022-08-16T00:29:15.670Z,5.73
2022-08-16T00:32:00.838Z,4.40
2022-08-16T00:34:41.244Z,4.20
2022-08-16T00:37:20.871Z,5.60
2022-08-16T00:39:58.262Z,5.27
2022-08-16T00:42:31.476Z,6.03
2022-08-16T00:45:09.519Z,5.03
2022-08-16T00:47:49.483Z,6.53
2022-08-16T00:50:21.845Z,4.00
2022-08-16T00:53:05.529Z,4.20
2022-08-16T00:55:37.504Z,7.03
2022-08-16T00:58:13.168Z,4.40
2022-08-16T01:00:45.718Z,5.50
2022-08-16T01:03:31.836Z,4.30
2022-08-16T01:06:39.884Z,7.13
2022-08-16T01:08:56.233Z,5.30
2022-08-16T01:11:29.714Z,6.23
2022-08-16T01:14:03.926Z,4.97
2022-08-16T01:16:33.153Z,4.63
2022-08-16T01:19:11.347Z,4.00
2022-08-16T01:21:47.917Z,4.77
2022-08-16T01:24:52.050Z,5.43
2022-08-16T01:27:17.529Z,4.20
2022-08-16T01:29:58.648Z,3.53
2022-08-16T01:32:33.771Z,3.50
2022-08-16T01:35:06.634Z,3.67
2022-08-16T01:37:42.220Z,3.63
2022-08-16T01:40:15.508Z,2.83
2022-08-16T01:42:47.949Z,3.30
2022-08-16T01:45:19.495Z,2.83
2022-08-16T01:47:51.265Z,3.10
2022-08-16T01:50:43.439Z,3.77
2022-08-16T01:53:11.167Z,3.50
2022-08-16T01:55:42.905Z,3.60
2022-08-16T01:58:24.068Z,4.53
2022-08-16T02:00:52.494Z,5.93
2022-08-16T02:03:24.450Z,3.33
2022-08-16T02:05:55.453Z,3.37
2022-08-16T02:08:32.873Z,4.90
2022-08-16T02:11:05.040Z,3.53
2022-08-16T02:13:33.678Z,3.20
2022-08-16T02:16:03.104Z,3.00
2022-08-16T02:18:32.215Z,3.23
2022-08-16T02:21:03.416Z,3.43
2022-08-16T02:23:33.173Z,3.43
2022-08-16T02:26:03.390Z,3.73
2022-08-16T02:28:31.973Z,3.73
2022-08-16T02:31:07.619Z,4.10
2022-08-16T02:33:43.636Z,3.70
2022-08-16T02:36:47.368Z,3.20
2022-08-16T02:39:07.760Z,3.40
2022-08-16T02:41:39.571Z,3.37
2022-08-16T02:44:13.699Z,3.07
2022-08-16T02:46:50.765Z,2.80
2022-08-16T02:49:58.031Z,2.97
2022-08-16T02:52:17.114Z,4.33
2022-08-16T02:54:55.476Z,2.83
2022-08-16T02:57:25.971Z,2.60
2022-08-16T02:59:55.446Z,3.23
2022-08-16T03:02:31.874Z,2.67
2022-08-16T03:05:01.614Z,2.90
2022-08-16T03:07:30.317Z,3.03
2022-08-16T03:10:08.633Z,4.20
2022-08-16T03:12:55.372Z,2.10
2022-08-16T03:15:25.127Z,2.53
2022-08-16T03:17:56.631Z,2.67
2022-08-16T03:20:31.934Z,2.80
2022-08-16T03:23:01.885Z,2.67
2022-08-16T03:25:40.854Z,3.20
2022-08-16T03:28:17.257Z,2.93
2022-08-16T03:30:47.567Z,2.30
2022-08-16T03:33:16.251Z,2.60
2022-08-16T03:35:44.712Z,2.50
2022-08-16T03:38:33.066Z,2.10
2022-08-16T03:41:17.144Z,3.87
2022-08-16T03:43:55.817Z,3.07
2022-08-16T03:46:48.192Z,3.03
2022-08-16T03:49:13.949Z,3.10
2022-08-16T03:51:44.104Z,2.67
2022-08-16T03:54:12.981Z,2.63
2022-08-16T03:56:56.669Z,2.63
2022-08-16T03:59:29.424Z,2.70
2022-08-16T04:01:58.817Z,3.10
2022-08-16T04:04:33.313Z,2.93
2022-08-16T04:07:04.178Z,2.83
2022-08-16T04:09:35.528Z,2.80
2022-08-16T04:12:10.696Z,2.87
2022-08-16T04:15:00.655Z,3.80
2022-08-16T04:17:31.069Z,3.63
2022-08-16T04:19:59.774Z,2.63
2022-08-16T04:22:29.553Z,2.90
2022-08-16T04:24:59.132Z,2.77
2022-08-16T04:27:28.961Z,3.00
2022-08-16T04:30:04.074Z,3.30
2022-08-16T04:32:40.224Z,3.27
2022-08-16T04:35:16.214Z,3.00
2022-08-16T04:37:45.567Z,3.73
2022-08-16T04:40:21.667Z,3.43
2022-08-16T04:42:50.730Z,5.63
2022-08-16T04:45:36.545Z,4.10
2022-08-16T04:48:06.461Z,3.90
2022-08-16T04:50:35.273Z,3.10
2022-08-16T04:53:05.485Z,3.20
2022-08-16T04:55:38.197Z,3.17
2022-08-16T04:58:43.854Z,3.20
2022-08-16T05:00:59.121Z,3.57
2022-08-16T05:03:28.312Z,3.60
2022-08-16T05:05:59.961Z,3.40
2022-08-16T05:08:34.497Z,3.73
2022-08-16T05:11:08.336Z,3.73
2022-08-16T05:13:42.552Z,4.03
2022-08-16T05:16:21.367Z,3.60
2022-08-16T05:18:52.019Z,5.73
2022-08-16T05:21:21.664Z,3.77
2022-08-16T05:23:55.702Z,3.83
2022-08-16T05:26:27.947Z,4.07
2022-08-16T05:28:59.798Z,3.60
2022-08-16T05:31:30.695Z,3.40
2022-08-16T05:34:03.668Z,3.47
2022-08-16T05:36:36.946Z,3.67
2022-08-16T05:39:08.701Z,4.77
2022-08-16T05:41:45.614Z,3.83
2022-08-16T05:44:24.273Z,3.40
2022-08-16T05:46:56.525Z,4.20
2022-08-16T05:49:25.464Z,3.27
2022-08-16T05:52:11.475Z,4.47
2022-08-16T05:54:47.955Z,3.53
2022-08-16T05:57:33.813Z,4.63
2022-08-16T06:00:09.168Z,4.47
2022-08-16T06:02:39.906Z,3.87
2022-08-16T06:05:10.811Z,3.60
2022-08-16T06:07:39.652Z,5.40
2022-08-16T06:10:09.585Z,3.30
2022-08-16T06:12:38.816Z,3.93
2022-08-16T06:15:16.594Z,3.77
2022-08-16T06:17:47.256Z,3.60
2022-08-16T06:20:35.234Z,3.73
2022-08-16T06:23:11.696Z,3.10
2022-08-16T06:25:53.010Z,3.03
2022-08-16T06:28:34.764Z,3.97
2022-08-16T06:31:04.950Z,3.10
2022-08-16T06:33:41.932Z,3.00
2022-08-16T06:36:13.973Z,3.80
2022-08-16T06:38:56.012Z,2.60
2022-08-16T06:41:27.331Z,3.20
2022-08-16T06:43:56.613Z,3.23
2022-08-16T06:46:31.923Z,3.90
2022-08-16T06:49:02.506Z,2.90
2022-08-16T06:51:46.263Z,3.70
2022-08-16T06:54:18.321Z,2.90
2022-08-16T06:56:46.716Z,3.03
2022-08-16T06:59:20.905Z,2.87
2022-08-16T07:01:55.261Z,2.97
2022-08-16T07:04:32.528Z,4.30
2022-08-16T07:07:06.254Z,3.30
2022-08-16T07:09:38.716Z,3.30
2022-08-16T07:12:07.830Z,2.80
2022-08-16T07:14:36.429Z,3.60
2022-08-16T07:17:08.290Z,4.03
2022-08-16T07:20:03.013Z,4.03
2022-08-16T07:22:47.682Z,4.53
2022-08-16T07:25:22.803Z,3.87
2022-08-16T07:27:52.012Z,3.80
2022-08-16T07:30:45.875Z,3.60
2022-08-16T07:33:10.558Z,3.73
2022-08-16T07:35:49.675Z,4.00
2022-08-16T07:38:19.993Z,4.00
2022-08-16T07:41:01.694Z,3.97
2022-08-16T07:43:30.754Z,3.97
2022-08-16T07:45:59.583Z,3.80
2022-08-16T07:48:31.964Z,3.50
2022-08-16T07:51:06.457Z,3.37
2022-08-16T07:53:43.843Z,3.37
2022-08-16T07:56:12.726Z,3.70
2022-08-16T07:58:43.293Z,4.10
2022-08-16T08:01:15.046Z,3.57
2022-08-16T08:03:48.815Z,3.80
2022-08-16T08:06:29.863Z,3.73
2022-08-16T08:08:59.334Z,3.97
2022-08-16T08:11:29.212Z,3.73
2022-08-16T08:14:03.322Z,3.70
2022-08-16T08:19:31.362Z,4.20
2022-08-16T08:22:02.610Z,3.80
2022-08-16T08:24:36.238Z,4.50
2022-08-16T08:27:06.571Z,3.90
2022-08-16T08:29:40.340Z,3.97
2022-08-16T08:32:59.962Z,4.57
2022-08-16T08:35:03.316Z,4.03
2022-08-16T08:37:55.039Z,3.60
2022-08-16T08:40:26.743Z,4.17
2022-08-16T08:43:00.850Z,3.17
2022-08-16T08:45:49.342Z,3.13
2022-08-16T08:48:33.771Z,3.20
2022-08-16T08:51:04.775Z,5.03
2022-08-16T08:53:35.587Z,3.10
2022-08-16T08:56:23.738Z,4.13
2022-08-16T08:58:59.146Z,3.27
2022-08-16T09:01:36.492Z,3.20
2022-08-16T09:04:14.644Z,3.47
2022-08-16T09:06:46.698Z,6.03
2022-08-16T09:09:18.969Z,3.20
2022-08-16T09:11:53.445Z,3.37
2022-08-16T09:14:26.972Z,3.63
2022-08-16T09:17:02.840Z,3.47
2022-08-16T09:19:41.299Z,3.03
2022-08-16T09:22:20.727Z,4.07
2022-08-16T09:24:53.098Z,3.20
2022-08-16T09:27:23.339Z,3.57
2022-08-16T09:30:00.309Z,3.50
2022-08-16T09:32:31.394Z,3.27
2022-08-16T09:35:01.954Z,4.63
2022-08-16T09:37:36.685Z,3.30
2022-08-16T09:40:32.705Z,3.63
2022-08-16T09:42:59.816Z,2.70
2022-08-16T09:45:31.302Z,3.00
2022-08-16T09:47:59.746Z,3.10
2022-08-16T09:50:37.018Z,2.97
2022-08-16T09:53:16.088Z,3.10
2022-08-16T09:55:49.388Z,3.63
2022-08-16T09:58:41.835Z,3.80
2022-08-16T10:01:08.575Z,2.90
2022-08-16T10:04:02.293Z,3.13
2022-08-16T10:06:33.407Z,2.87
2022-08-16T10:09:05.900Z,2.83
2022-08-16T10:11:54.660Z,3.03
2022-08-16T10:14:24.825Z,2.87
2022-08-16T10:17:05.113Z,2.93
2022-08-16T10:19:33.945Z,2.90
2022-08-16T10:22:05.124Z,2.73
2022-08-16T10:24:35.702Z,2.40
2022-08-16T10:27:25.716Z,2.57
2022-08-16T10:30:00.432Z,2.43
2022-08-16T10:32:31.124Z,2.50
2022-08-16T10:35:03.368Z,2.57
2022-08-16T10:37:36.227Z,2.53
2022-08-16T10:40:28.333Z,3.67
2022-08-16T10:43:00.418Z,2.40
2022-08-16T10:45:36.653Z,3.00
2022-08-16T10:48:27.813Z,2.50
2022-08-16T10:51:05.382Z,2.33
2022-08-16T10:53:34.577Z,2.40
2022-08-16T10:56:05.361Z,2.77
2022-08-16T10:59:29.574Z,2.30
2022-08-16T11:02:21.682Z,3.90
2022-08-16T11:10:20.971Z,2.80
2022-08-16T11:12:52.723Z,3.57
2022-08-16T11:15:24.513Z,3.23
2022-08-16T11:20:49.085Z,3.20
2022-08-16T11:23:18.058Z,2.50
2022-08-16T11:26:23.624Z,2.63
2022-08-16T11:29:12.555Z,2.83
2022-08-16T11:31:27.654Z,2.80
2022-08-16T11:34:01.203Z,3.50
2022-08-16T11:36:31.956Z,3.77
2022-08-16T11:39:02.323Z,3.00
2022-08-16T11:41:33.824Z,3.50
2022-08-16T11:44:03.291Z,4.07
2022-08-16T11:46:45.162Z,3.13
2022-08-16T11:49:16.310Z,2.83
2022-08-16T11:51:46.304Z,2.67
2022-08-16T11:54:20.331Z,2.47
2022-08-16T11:56:52.585Z,3.57
2022-08-16T11:59:28.671Z,3.13
2022-08-16T12:01:59.815Z,3.30
2022-08-16T12:04:34.017Z,3.03
2022-08-16T12:07:02.650Z,3.30
2022-08-16T12:09:32.324Z,3.20
2022-08-16T12:12:03.383Z,3.03
2022-08-16T12:14:35.542Z,3.53
2022-08-16T12:17:09.789Z,3.67
2022-08-16T12:19:39.325Z,2.80
2022-08-16T12:22:19.210Z,3.20
2022-08-16T12:24:51.940Z,3.73
2022-08-16T12:27:24.400Z,4.37
2022-08-16T12:29:54.311Z,7.30
2022-08-16T12:32:37.961Z,3.67
2022-08-16T12:35:10.349Z,3.93
2022-08-16T12:37:39.307Z,4.03
2022-08-16T12:40:23.117Z,4.07
2022-08-16T12:42:58.524Z,5.07
2022-08-16T12:45:30.400Z,3.57
2022-08-16T12:48:35.013Z,2.77
2022-08-16T12:51:19.321Z,3.10
2022-08-16T12:53:50.514Z,3.80
2022-08-16T12:56:21.684Z,3.60
2022-08-16T12:58:55.908Z,3.00
2022-08-16T13:01:29.629Z,3.87
2022-08-16T13:04:11.480Z,3.50
2022-08-16T13:06:50.180Z,4.00
2022-08-16T13:09:23.770Z,4.80
2022-08-16T13:12:05.667Z,3.70
2022-08-16T13:14:38.180Z,3.50
2022-08-16T13:17:12.885Z,3.47
2022-08-16T13:20:07.150Z,2.97
2022-08-16T13:25:13.975Z,4.47
2022-08-16T13:28:02.605Z,3.93
2022-08-16T13:30:37.271Z,3.80
2022-08-16T13:33:13.180Z,3.83
2022-08-16T13:35:55.516Z,3.70
2022-08-16T13:38:26.070Z,4.00
2022-08-16T13:40:57.432Z,3.90
2022-08-16T13:43:27.321Z,3.87
2022-08-16T13:45:56.401Z,3.87
2022-08-16T13:48:26.482Z,4.47
2022-08-16T13:51:18.019Z,3.30
2022-08-16T13:53:54.971Z,3.60
2022-08-16T13:56:37.185Z,3.13
2022-08-16T13:59:19.465Z,3.13
2022-08-16T14:01:54.468Z,3.97
2022-08-16T14:04:26.508Z,4.47
2022-08-16T14:06:57.711Z,4.30
2022-08-16T14:09:27.153Z,3.40
2022-08-16T14:11:56.005Z,3.20
2022-08-16T14:14:28.469Z,3.80
2022-08-16T14:16:58.273Z,3.53
2022-08-16T14:19:27.877Z,5.10
2022-08-16T14:22:14.344Z,3.27
2022-08-16T14:24:46.672Z,3.50
2022-08-16T14:27:16.077Z,3.27
2022-08-16T14:29:45.662Z,3.00
2022-08-16T14:32:33.359Z,2.97
2022-08-16T14:35:07.155Z,3.10
2022-08-16T14:37:38.459Z,3.20
2022-08-16T14:40:08.423Z,3.63
2022-08-16T14:42:37.161Z,3.33
2022-08-16T14:45:07.662Z,4.73
2022-08-16T14:47:38.322Z,3.40
2022-08-16T14:50:14.077Z,3.57
2022-08-16T14:53:02.054Z,3.37
2022-08-16T14:55:33.893Z,3.60
2022-08-16T14:58:05.808Z,3.40
2022-08-16T15:00:38.890Z,3.23
2022-08-16T15:03:10.713Z,3.13
2022-08-16T15:05:40.416Z,4.47
2022-08-16T15:08:11.577Z,4.30
2022-08-16T15:10:41.278Z,4.93
2022-08-16T15:13:13.491Z,3.27
2022-08-16T15:15:44.121Z,4.70
2022-08-16T15:18:23.377Z,3.67
2022-08-16T15:20:56.244Z,3.20
2022-08-16T15:23:26.350Z,3.30
2022-08-16T15:26:02.812Z,3.33
2022-08-16T15:28:33.664Z,4.23
2022-08-16T15:31:03.935Z,3.47
2022-08-16T15:33:34.963Z,3.13
2022-08-16T15:36:06.123Z,3.33
2022-08-16T15:39:02.965Z,4.27
2022-08-16T15:41:55.830Z,3.20
2022-08-16T15:44:27.401Z,3.33
2022-08-16T15:46:59.923Z,3.20
2022-08-16T15:49:37.899Z,3.43
2022-08-16T15:52:20.554Z,3.27
2022-08-16T15:54:55.491Z,2.90
2022-08-16T15:57:26.926Z,3.10
2022-08-16T16:00:04.766Z,3.20
2022-08-16T16:02:42.903Z,3.20
2022-08-16T16:05:11.968Z,3.27
2022-08-16T16:07:56.306Z,3.07
2022-08-16T16:10:29.800Z,4.77
2022-08-16T16:13:00.560Z,2.93
2022-08-16T16:15:33.307Z,4.07
2022-08-16T16:18:09.514Z,4.37
2022-08-16T16:20:43.688Z,2.80
2022-08-16T16:23:12.623Z,2.90
2022-08-16T16:25:44.534Z,2.97
2022-08-16T16:29:04.973Z,3.80
2022-08-16T16:31:05.081Z,2.47
2022-08-16T16:33:37.007Z,2.93
2022-08-16T16:36:07.287Z,3.93
2022-08-16T16:38:41.933Z,2.97
2022-08-16T16:41:13.190Z,3.30
2022-08-16T16:43:44.741Z,2.60
2022-08-16T16:46:40.587Z,3.47
2022-08-16T16:49:06.160Z,3.43
2022-08-16T16:51:40.378Z,3.10
2022-08-16T16:54:12.672Z,4.33
2022-08-16T16:56:49.488Z,2.60
2022-08-16T16:59:20.068Z,4.83
2022-08-16T17:02:00.269Z,2.73
2022-08-16T17:04:39.295Z,3.20
2022-08-16T17:07:11.013Z,3.67
2022-08-16T17:09:41.016Z,3.53
2022-08-16T17:12:14.511Z,3.93
2022-08-16T17:14:53.305Z,2.70
2022-08-16T17:17:22.185Z,4.23
2022-08-16T17:19:50.712Z,2.87
2022-08-16T17:22:21.995Z,2.83
2022-08-16T17:24:53.321Z,3.43
2022-08-16T17:27:32.715Z,2.70
2022-08-16T17:30:03.191Z,2.60
2022-08-16T17:32:47.979Z,2.77
2022-08-16T17:35:19.367Z,4.23
2022-08-16T17:37:51.790Z,3.03
2022-08-16T17:40:40.554Z,2.73
2022-08-16T17:43:14.121Z,3.30
2022-08-16T17:45:44.003Z,3.60
2022-08-16T17:48:12.658Z,5.10
2022-08-16T17:50:42.157Z,3.77
2022-08-16T17:53:12.140Z,2.33
2022-08-16T17:55:42.912Z,3.10
2022-08-16T17:58:23.649Z,2.47
2022-08-16T18:00:54.784Z,4.90
2022-08-16T18:04:07.444Z,2.47
2022-08-16T18:06:17.222Z,3.70
2022-08-16T18:08:48.602Z,2.83
2022-08-16T18:11:25.760Z,2.30
2022-08-16T18:13:56.603Z,2.70
2022-08-16T18:16:25.619Z,2.50
2022-08-16T18:18:54.279Z,3.30
2022-08-16T18:21:37.608Z,2.43
2022-08-16T18:24:06.703Z,2.47
2022-08-16T18:26:37.583Z,3.33
2022-08-16T18:29:07.597Z,3.43
2022-08-16T18:31:36.072Z,2.70
2022-08-16T18:34:04.901Z,2.80
2022-08-16T18:36:33.763Z,2.93
2022-08-16T18:39:02.251Z,3.87
2022-08-16T18:41:33.682Z,2.23
2022-08-16T18:44:26.201Z,2.87
2022-08-16T18:46:52.246Z,2.63
2022-08-16T18:49:20.986Z,4.17
2022-08-16T18:51:50.917Z,2.57
2022-08-16T18:54:19.605Z,3.00
2022-08-16T18:56:55.531Z,2.70
2022-08-16T18:59:26.979Z,4.10
2022-08-16T19:02:00.187Z,3.53
2022-08-16T19:04:56.382Z,3.47
2022-08-16T19:07:22.526Z,3.27
2022-08-16T19:09:51.071Z,4.13
2022-08-16T19:12:38.343Z,4.63
2022-08-16T19:15:11.899Z,3.17
2022-08-16T19:17:42.124Z,3.10
2022-08-16T19:20:11.520Z,4.17
2022-08-16T19:25:47.039Z,3.77
2022-08-16T19:28:51.734Z,3.40
2022-08-16T19:31:12.400Z,4.87
2022-08-16T19:33:53.706Z,3.90
2022-08-16T19:36:31.155Z,3.67
2022-08-16T19:39:04.261Z,5.03
2022-08-16T19:41:36.279Z,3.17
2022-08-16T19:44:05.829Z,5.27
2022-08-16T19:46:34.507Z,4.23
2022-08-16T19:49:04.829Z,4.07
2022-08-16T19:51:33.268Z,4.90
2022-08-16T19:54:01.744Z,7.33
2022-08-16T19:56:30.179Z,4.60
2022-08-16T20:01:49.330Z,4.10
2022-08-16T20:04:19.339Z,4.03
2022-08-16T20:06:48.371Z,4.80
2022-08-16T20:09:16.812Z,5.23
2022-08-16T20:11:45.751Z,4.77
2022-08-16T20:14:24.686Z,4.87
2022-08-16T20:16:55.792Z,4.30
2022-08-16T20:19:27.449Z,6.57
2022-08-16T20:21:57.410Z,5.43
2022-08-16T20:24:35.720Z,4.33
2022-08-16T20:27:06.229Z,5.77
2022-08-16T20:29:34.861Z,5.50
2022-08-16T20:32:03.579Z,5.70
2022-08-16T20:34:33.993Z,7.40
2022-08-16T20:37:02.556Z,5.20
2022-08-16T20:39:31.031Z,5.73
2022-08-16T20:41:59.763Z,4.73
2022-08-16T20:44:28.204Z,5.10
2022-08-16T20:46:56.587Z,3.63
2022-08-16T20:49:25.008Z,3.87
2022-08-16T20:51:59.090Z,6.10
2022-08-16T20:54:28.481Z,4.63
2022-08-16T20:56:56.926Z,4.27
2022-08-16T20:59:25.434Z,5.17
2022-08-16T21:01:54.039Z,7.60
2022-08-16T21:04:24.615Z,6.10
2022-08-16T21:06:55.494Z,6.43
2022-08-16T21:09:26.596Z,6.20
2022-08-16T21:11:57.060Z,5.83
2022-08-16T21:14:26.160Z,6.20
2022-08-16T21:16:55.149Z,6.07
2022-08-16T21:19:23.885Z,7.47
2022-08-16T21:21:52.338Z,6.67
2022-08-16T21:24:22.514Z,5.63
2022-08-16T21:26:55.404Z,6.00
2022-08-16T21:29:27.301Z,6.47
2022-08-16T21:32:10.014Z,6.00
2022-08-16T21:34:38.884Z,7.10
2022-08-16T21:37:07.566Z,7.83
2022-08-16T21:39:37.512Z,6.20
2022-08-16T21:42:09.870Z,6.10
2022-08-16T21:44:38.733Z,6.00
2022-08-16T21:47:08.401Z,5.90
2022-08-16T21:49:37.935Z,6.30
2022-08-16T21:52:08.052Z,5.93
2022-08-16T21:54:39.352Z,6.37
2022-08-16T21:57:10.861Z,6.47
2022-08-16T21:59:39.632Z,7.33
2022-08-16T22:02:08.149Z,6.57
2022-08-16T22:04:38.919Z,7.20
2022-08-16T22:07:08.374Z,7.37
2022-08-16T22:09:38.185Z,6.50
2022-08-16T22:12:07.565Z,7.40
2022-08-16T22:14:36.491Z,7.67
2022-08-16T22:17:04.898Z,6.67
2022-08-16T22:19:33.714Z,6.77
2022-08-16T22:22:02.629Z,7.57
2022-08-16T22:24:31.090Z,6.97
2022-08-16T22:27:00.864Z,8.53
2022-08-16T22:29:29.307Z,7.77
2022-08-16T22:31:58.193Z,7.77
2022-08-16T22:34:26.621Z,7.90
2022-08-16T22:36:54.972Z,8.07
2022-08-16T22:39:23.407Z,6.73
2022-08-16T22:41:52.110Z,6.90
2022-08-16T22:44:22.435Z,6.83
2022-08-16T22:46:50.845Z,7.03
2022-08-16T22:49:20.579Z,6.47
2022-08-16T22:51:49.195Z,7.57
2022-08-16T22:54:47.532Z,7.30
2022-08-16T22:57:07.774Z,8.40
2022-08-16T22:59:37.645Z,6.43
2022-08-16T23:02:09.476Z,7.23
2022-08-16T23:04:38.262Z,7.53
2022-08-16T23:07:06.875Z,8.40
2022-08-16T23:09:35.342Z,9.67
2022-08-16T23:12:07.384Z,6.83
2022-08-16T23:14:37.231Z,7.30
2022-08-16T23:17:05.803Z,7.10
2022-08-16T23:19:34.186Z,6.80
2022-08-16T23:22:02.611Z,7.17
2022-08-16T23:24:37.154Z,7.50
2022-08-16T23:27:20.942Z,9.43
2022-08-16T23:29:50.780Z,7.20
2022-08-16T23:32:19.160Z,6.97
2022-08-16T23:34:47.837Z,8.50
2022-08-16T23:37:21.415Z,8.83
2022-08-16T23:39:54.528Z,8.77
2022-08-16T23:42:53.131Z,7.87
2022-08-16T23:45:13.736Z,7.93
2022-08-16T23:47:42.105Z,8.67
2022-08-16T23:50:11.446Z,8.90
2022-08-16T23:52:55.149Z,8.73
2022-08-16T23:55:24.436Z,8.57
2022-08-16T23:57:53.138Z,7.20
